sensor_id;sensor_type;location;lat;lon;timestamp;temperature;humidity
1686;DHT22;840;47.980;7.830;2022-12-18T00:02:01;-3.10;99.90
1686;DHT22;840;47.980;7.830;2022-12-18T00:04:29;-3.20;99.90
1686;DHT22;840;47.980;7.830;2022-12-18T00:06:59;-3.30;99.90
1686;DHT22;840;47.980;7.830;2022-12-18T00:09:28;-3.40;99.90
1686;DHT22;840;47.980;7.830;2022-12-18T00:11:54;-3.40;99.90
1686;DHT22;840;47.980;7.830;2022-12-18T00:14:22;-3.40;99.90
1686;DHT22;840;47.980;7.830;2022-12-18T00:16:49;-3.40;99.90
1686;DHT22;840;47.980;7.830;2022-12-18T00:19:16;-3.50;99.90
1686;DHT22;840;47.980;7.830;2022-12-18T00:21:44;-3.50;99.90
1686;DHT22;840;47.980;7.830;2022-12-18T00:24:14;-3.60;99.90
1686;DHT22;840;47.980;7.830;2022-12-18T00:26:46;-3.70;99.90
1686;DHT22;840;47.980;7.830;2022-12-18T00:29:26;-3.70;99.90
1686;DHT22;840;47.980;7.830;2022-12-18T00:31:53;-3.80;99.90
1686;DHT22;840;47.980;7.830;2022-12-18T00:34:21;-3.80;99.90
1686;DHT22;840;47.980;7.830;2022-12-18T00:36:51;-3.90;99.90
1686;DHT22;840;47.980;7.830;2022-12-18T00:39:22;-4.00;99.90
1686;DHT22;840;47.980;7.830;2022-12-18T00:41:51;-4.10;99.90
1686;DHT22;840;47.980;7.830;2022-12-18T00:44:35;-4.10;99.90
1686;DHT22;840;47.980;7.830;2022-12-18T00:47:09;-4.10;99.90
1686;DHT22;840;47.980;7.830;2022-12-18T00:49:39;-4.10;99.90
1686;DHT22;840;47.980;7.830;2022-12-18T00:52:20;-4.00;99.90
1686;DHT22;840;47.980;7.830;2022-12-18T00:55:05;-4.00;99.90
1686;DHT22;840;47.980;7.830;2022-12-18T00:57:44;-4.00;99.90
1686;DHT22;840;47.980;7.830;2022-12-18T01:00:30;-3.90;99.90
1686;DHT22;840;47.980;7.830;2022-12-18T01:03:03;-3.90;99.90
1686;DHT22;840;47.980;7.830;2022-12-18T01:05:34;-3.90;99.90
1686;DHT22;840;47.980;7.830;2022-12-18T01:08:06;-3.90;99.90
1686;DHT22;840;47.980;7.830;2022-12-18T01:10:45;-3.90;99.90
1686;DHT22;840;47.980;7.830;2022-12-18T01:13:35;-3.90;99.90
1686;DHT22;840;47.980;7.830;2022-12-18T01:16:10;-3.90;99.90
1686;DHT22;840;47.980;7.830;2022-12-18T01:18:41;-3.90;99.90
1686;DHT22;840;47.980;7.830;2022-12-18T01:21:22;-3.90;99.90
1686;DHT22;840;47.980;7.830;2022-12-18T01:23:52;-3.90;99.90
1686;DHT22;840;47.980;7.830;2022-12-18T01:26:24;-3.90;99.90
1686;DHT22;840;47.980;7.830;2022-12-18T01:28:54;-4.00;99.90
1686;DHT22;840;47.980;7.830;2022-12-18T01:31:23;-4.00;99.90
1686;DHT22;840;47.980;7.830;2022-12-18T01:33:56;-4.00;99.90
1686;DHT22;840;47.980;7.830;2022-12-18T01:36:33;-4.00;99.90
1686;DHT22;840;47.980;7.830;2022-12-18T01:39:16;-4.00;99.90
1686;DHT22;840;47.980;7.830;2022-12-18T01:41:49;-4.10;99.90
1686;DHT22;840;47.980;7.830;2022-12-18T01:44:54;-4.10;99.90
1686;DHT22;840;47.980;7.830;2022-12-18T01:47:25;-4.10;99.90
1686;DHT22;840;47.980;7.830;2022-12-18T01:49:54;-4.10;99.90
1686;DHT22;840;47.980;7.830;2022-12-18T01:52:22;-4.10;99.90
1686;DHT22;840;47.980;7.830;2022-12-18T01:54:53;-4.10;99.90
1686;DHT22;840;47.980;7.830;2022-12-18T01:57:30;-4.10;99.90
1686;DHT22;840;47.980;7.830;2022-12-18T02:00:06;-4.10;99.90
1686;DHT22;840;47.980;7.830;2022-12-18T02:02:35;-4.10;99.90
1686;DHT22;840;47.980;7.830;2022-12-18T02:05:16;-4.10;99.90
1686;DHT22;840;47.980;7.830;2022-12-18T02:07:55;-4.10;99.90
1686;DHT22;840;47.980;7.830;2022-12-18T02:10:30;-4.20;99.90
1686;DHT22;840;47.980;7.830;2022-12-18T02:13:08;-4.20;99.90
1686;DHT22;840;47.980;7.830;2022-12-18T02:15:44;-4.10;99.90
1686;DHT22;840;47.980;7.830;2022-12-18T02:18:23;-4.10;99.90
1686;DHT22;840;47.980;7.830;2022-12-18T02:20:57;-4.10;99.90
1686;DHT22;840;47.980;7.830;2022-12-18T02:23:41;-4.10;99.90
1686;DHT22;840;47.980;7.830;2022-12-18T02:26:23;-4.10;99.90
1686;DHT22;840;47.980;7.830;2022-12-18T02:28:56;-4.10;99.90
1686;DHT22;840;47.980;7.830;2022-12-18T02:31:30;-4.20;99.90
1686;DHT22;840;47.980;7.830;2022-12-18T02:34:03;-4.10;99.90
1686;DHT22;840;47.980;7.830;2022-12-18T02:36:33;-4.10;99.90
1686;DHT22;840;47.980;7.830;2022-12-18T02:39:02;-4.10;99.90
1686;DHT22;840;47.980;7.830;2022-12-18T02:41:35;-4.10;99.90
1686;DHT22;840;47.980;7.830;2022-12-18T02:44:09;-4.00;99.90
1686;DHT22;840;47.980;7.830;2022-12-18T02:46:39;-4.00;99.90
1686;DHT22;840;47.980;7.830;2022-12-18T02:49:24;-4.00;99.90
1686;DHT22;840;47.980;7.830;2022-12-18T02:52:01;-4.00;99.90
1686;DHT22;840;47.980;7.830;2022-12-18T02:54:41;-4.00;99.90
1686;DHT22;840;47.980;7.830;2022-12-18T02:57:22;-4.00;99.90
1686;DHT22;840;47.980;7.830;2022-12-18T02:59:57;-4.00;99.90
1686;DHT22;840;47.980;7.830;2022-12-18T03:02:29;-3.90;99.90
1686;DHT22;840;47.980;7.830;2022-12-18T03:05:03;-3.90;99.90
1686;DHT22;840;47.980;7.830;2022-12-18T03:07:37;-4.00;99.90
1686;DHT22;840;47.980;7.830;2022-12-18T03:10:08;-3.90;99.90
1686;DHT22;840;47.980;7.830;2022-12-18T03:12:47;-3.90;99.90
1686;DHT22;840;47.980;7.830;2022-12-18T03:15:23;-4.00;99.90
1686;DHT22;840;47.980;7.830;2022-12-18T03:17:57;-4.00;99.90
1686;DHT22;840;47.980;7.830;2022-12-18T03:20:27;-4.10;99.90
1686;DHT22;840;47.980;7.830;2022-12-18T03:23:02;-4.20;99.90
1686;DHT22;840;47.980;7.830;2022-12-18T03:25:35;-4.30;99.90
1686;DHT22;840;47.980;7.830;2022-12-18T03:28:13;-4.30;99.90
1686;DHT22;840;47.980;7.830;2022-12-18T03:30:44;-4.40;99.90
1686;DHT22;840;47.980;7.830;2022-12-18T03:33:16;-4.40;99.90
1686;DHT22;840;47.980;7.830;2022-12-18T03:35:46;-4.40;99.90
1686;DHT22;840;47.980;7.830;2022-12-18T03:38:27;-4.50;99.90
1686;DHT22;840;47.980;7.830;2022-12-18T03:41:01;-4.50;99.90
1686;DHT22;840;47.980;7.830;2022-12-18T03:43:38;-4.50;99.90
1686;DHT22;840;47.980;7.830;2022-12-18T03:46:15;-4.50;99.90
1686;DHT22;840;47.980;7.830;2022-12-18T03:48:48;-4.50;99.90
1686;DHT22;840;47.980;7.830;2022-12-18T03:51:23;-4.60;99.90
1686;DHT22;840;47.980;7.830;2022-12-18T03:53:57;-4.60;99.90
1686;DHT22;840;47.980;7.830;2022-12-18T03:56:38;-4.50;99.90
1686;DHT22;840;47.980;7.830;2022-12-18T03:59:10;-4.50;99.90
1686;DHT22;840;47.980;7.830;2022-12-18T04:01:42;-4.60;99.90
1686;DHT22;840;47.980;7.830;2022-12-18T04:04:15;-4.60;99.90
1686;DHT22;840;47.980;7.830;2022-12-18T04:06:47;-4.60;99.90
1686;DHT22;840;47.980;7.830;2022-12-18T04:09:21;-4.60;99.90
1686;DHT22;840;47.980;7.830;2022-12-18T04:11:52;-4.60;99.90
1686;DHT22;840;47.980;7.830;2022-12-18T04:14:21;-4.60;99.90
1686;DHT22;840;47.980;7.830;2022-12-18T04:16:48;-4.60;99.90
1686;DHT22;840;47.980;7.830;2022-12-18T04:19:17;-4.60;99.90
1686;DHT22;840;47.980;7.830;2022-12-18T04:21:44;-4.60;99.90
1686;DHT22;840;47.980;7.830;2022-12-18T04:24:13;-4.50;99.90
1686;DHT22;840;47.980;7.830;2022-12-18T04:26:42;-4.60;99.90
1686;DHT22;840;47.980;7.830;2022-12-18T04:29:09;-4.70;99.90
1686;DHT22;840;47.980;7.830;2022-12-18T04:31:43;-4.70;99.90
1686;DHT22;840;47.980;7.830;2022-12-18T04:34:10;-4.70;99.90
1686;DHT22;840;47.980;7.830;2022-12-18T04:36:38;-4.70;99.90
1686;DHT22;840;47.980;7.830;2022-12-18T04:39:05;-4.90;99.90
1686;DHT22;840;47.980;7.830;2022-12-18T04:41:36;-4.90;99.90
1686;DHT22;840;47.980;7.830;2022-12-18T04:44:03;-5.10;99.90
1686;DHT22;840;47.980;7.830;2022-12-18T04:46:31;-5.10;99.90
1686;DHT22;840;47.980;7.830;2022-12-18T04:49:04;-5.10;99.90
1686;DHT22;840;47.980;7.830;2022-12-18T04:51:33;-5.20;99.90
1686;DHT22;840;47.980;7.830;2022-12-18T04:54:03;-5.20;99.90
1686;DHT22;840;47.980;7.830;2022-12-18T04:56:34;-5.20;99.90
1686;DHT22;840;47.980;7.830;2022-12-18T04:59:02;-5.30;99.90
1686;DHT22;840;47.980;7.830;2022-12-18T05:01:30;-5.30;99.90
1686;DHT22;840;47.980;7.830;2022-12-18T05:04:01;-5.40;99.90
1686;DHT22;840;47.980;7.830;2022-12-18T05:06:30;-5.50;99.90
1686;DHT22;840;47.980;7.830;2022-12-18T05:09:01;-5.60;99.90
1686;DHT22;840;47.980;7.830;2022-12-18T05:11:29;-5.70;99.90
1686;DHT22;840;47.980;7.830;2022-12-18T05:13:57;-5.70;99.90
1686;DHT22;840;47.980;7.830;2022-12-18T05:16:26;-5.70;99.90
1686;DHT22;840;47.980;7.830;2022-12-18T05:18:55;-5.80;99.90
1686;DHT22;840;47.980;7.830;2022-12-18T05:21:23;-5.80;99.90
1686;DHT22;840;47.980;7.830;2022-12-18T05:23:51;-5.80;99.90
1686;DHT22;840;47.980;7.830;2022-12-18T05:26:18;-5.80;99.90
1686;DHT22;840;47.980;7.830;2022-12-18T05:28:46;-5.80;99.90
1686;DHT22;840;47.980;7.830;2022-12-18T05:31:14;-5.80;99.90
1686;DHT22;840;47.980;7.830;2022-12-18T05:33:43;-5.80;99.90
1686;DHT22;840;47.980;7.830;2022-12-18T05:36:12;-5.80;99.90
1686;DHT22;840;47.980;7.830;2022-12-18T05:38:42;-5.80;99.90
1686;DHT22;840;47.980;7.830;2022-12-18T05:41:15;-5.80;99.90
1686;DHT22;840;47.980;7.830;2022-12-18T05:43:42;-5.80;99.90
1686;DHT22;840;47.980;7.830;2022-12-18T05:46:13;-5.80;99.90
1686;DHT22;840;47.980;7.830;2022-12-18T05:48:44;-5.80;99.90
1686;DHT22;840;47.980;7.830;2022-12-18T05:51:13;-5.80;99.90
1686;DHT22;840;47.980;7.830;2022-12-18T05:53:43;-5.80;99.90
1686;DHT22;840;47.980;7.830;2022-12-18T05:56:14;-5.80;99.90
1686;DHT22;840;47.980;7.830;2022-12-18T05:58:41;-5.80;99.90
1686;DHT22;840;47.980;7.830;2022-12-18T06:01:16;-5.70;99.90
1686;DHT22;840;47.980;7.830;2022-12-18T06:03:44;-5.70;99.90
1686;DHT22;840;47.980;7.830;2022-12-18T06:06:16;-5.80;99.90
1686;DHT22;840;47.980;7.830;2022-12-18T06:08:45;-5.80;99.90
1686;DHT22;840;47.980;7.830;2022-12-18T06:11:17;-5.80;99.90
1686;DHT22;840;47.980;7.830;2022-12-18T06:13:46;-5.80;99.90
1686;DHT22;840;47.980;7.830;2022-12-18T06:16:14;-5.80;99.90
1686;DHT22;840;47.980;7.830;2022-12-18T06:18:43;-5.70;99.90
1686;DHT22;840;47.980;7.830;2022-12-18T06:21:11;-5.80;99.90
1686;DHT22;840;47.980;7.830;2022-12-18T06:23:39;-5.70;99.90
1686;DHT22;840;47.980;7.830;2022-12-18T06:26:10;-5.70;99.90
1686;DHT22;840;47.980;7.830;2022-12-18T06:28:40;-5.70;99.90
1686;DHT22;840;47.980;7.830;2022-12-18T06:31:09;-5.70;99.90
1686;DHT22;840;47.980;7.830;2022-12-18T06:33:39;-5.70;99.90
1686;DHT22;840;47.980;7.830;2022-12-18T06:36:07;-5.70;99.90
1686;DHT22;840;47.980;7.830;2022-12-18T06:38:43;-5.70;99.90
1686;DHT22;840;47.980;7.830;2022-12-18T06:41:14;-5.80;99.90
1686;DHT22;840;47.980;7.830;2022-12-18T06:43:41;-5.80;99.90
1686;DHT22;840;47.980;7.830;2022-12-18T06:46:09;-5.80;99.90
1686;DHT22;840;47.980;7.830;2022-12-18T06:48:36;-5.90;99.90
1686;DHT22;840;47.980;7.830;2022-12-18T06:51:04;-5.90;99.90
1686;DHT22;840;47.980;7.830;2022-12-18T06:53:32;-5.90;99.90
1686;DHT22;840;47.980;7.830;2022-12-18T06:56:01;-6.00;99.90
1686;DHT22;840;47.980;7.830;2022-12-18T06:58:29;-6.00;99.90
1686;DHT22;840;47.980;7.830;2022-12-18T07:01:02;-6.10;99.90
1686;DHT22;840;47.980;7.830;2022-12-18T07:03:32;-6.00;99.90
1686;DHT22;840;47.980;7.830;2022-12-18T07:05:59;-6.00;99.90
1686;DHT22;840;47.980;7.830;2022-12-18T07:08:26;-6.00;99.90
1686;DHT22;840;47.980;7.830;2022-12-18T07:10:57;-6.00;99.90
1686;DHT22;840;47.980;7.830;2022-12-18T07:13:26;-6.00;99.90
1686;DHT22;840;47.980;7.830;2022-12-18T07:15:55;-5.90;99.90
1686;DHT22;840;47.980;7.830;2022-12-18T07:18:22;-5.90;99.90
1686;DHT22;840;47.980;7.830;2022-12-18T07:20:48;-5.90;99.90
1686;DHT22;840;47.980;7.830;2022-12-18T07:23:17;-5.90;99.90
1686;DHT22;840;47.980;7.830;2022-12-18T07:25:44;-5.90;99.90
1686;DHT22;840;47.980;7.830;2022-12-18T07:28:11;-5.90;99.90
1686;DHT22;840;47.980;7.830;2022-12-18T07:30:41;-5.90;99.90
1686;DHT22;840;47.980;7.830;2022-12-18T07:33:10;-5.90;99.90
1686;DHT22;840;47.980;7.830;2022-12-18T07:35:37;-5.90;99.90
1686;DHT22;840;47.980;7.830;2022-12-18T07:38:08;-5.90;99.90
1686;DHT22;840;47.980;7.830;2022-12-18T07:40:38;-5.90;99.90
1686;DHT22;840;47.980;7.830;2022-12-18T07:43:07;-5.90;99.90
1686;DHT22;840;47.980;7.830;2022-12-18T07:45:34;-5.90;99.90
1686;DHT22;840;47.980;7.830;2022-12-18T07:48:02;-5.90;99.90
1686;DHT22;840;47.980;7.830;2022-12-18T07:50:30;-5.90;99.90
1686;DHT22;840;47.980;7.830;2022-12-18T07:52:57;-5.90;99.90
1686;DHT22;840;47.980;7.830;2022-12-18T07:55:28;-5.90;99.90
1686;DHT22;840;47.980;7.830;2022-12-18T07:57:59;-5.90;99.90
1686;DHT22;840;47.980;7.830;2022-12-18T08:00:27;-5.90;99.90
1686;DHT22;840;47.980;7.830;2022-12-18T08:02:54;-5.90;99.90
1686;DHT22;840;47.980;7.830;2022-12-18T08:05:21;-5.90;99.90
1686;DHT22;840;47.980;7.830;2022-12-18T08:07:50;-5.80;99.90
1686;DHT22;840;47.980;7.830;2022-12-18T08:10:17;-5.80;99.90
1686;DHT22;840;47.980;7.830;2022-12-18T08:12:44;-5.80;99.90
1686;DHT22;840;47.980;7.830;2022-12-18T08:15:12;-5.80;99.90
1686;DHT22;840;47.980;7.830;2022-12-18T08:17:40;-5.80;99.90
1686;DHT22;840;47.980;7.830;2022-12-18T08:20:08;-5.70;99.90
1686;DHT22;840;47.980;7.830;2022-12-18T08:22:36;-5.70;99.90
1686;DHT22;840;47.980;7.830;2022-12-18T08:25:05;-5.70;99.90
1686;DHT22;840;47.980;7.830;2022-12-18T08:27:32;-5.70;99.90
1686;DHT22;840;47.980;7.830;2022-12-18T08:29:59;-5.60;99.90
1686;DHT22;840;47.980;7.830;2022-12-18T08:32:28;-5.60;99.90
1686;DHT22;840;47.980;7.830;2022-12-18T08:34:57;-5.60;99.90
1686;DHT22;840;47.980;7.830;2022-12-18T08:37:24;-5.50;99.90
1686;DHT22;840;47.980;7.830;2022-12-18T08:39:51;-5.50;99.90
1686;DHT22;840;47.980;7.830;2022-12-18T08:42:20;-5.50;99.90
1686;DHT22;840;47.980;7.830;2022-12-18T08:45:06;-5.50;99.90
1686;DHT22;840;47.980;7.830;2022-12-18T08:47:33;-5.50;99.90
1686;DHT22;840;47.980;7.830;2022-12-18T08:50:06;-5.40;99.90
1686;DHT22;840;47.980;7.830;2022-12-18T08:52:33;-5.40;99.90
1686;DHT22;840;47.980;7.830;2022-12-18T08:55:00;-5.30;99.90
1686;DHT22;840;47.980;7.830;2022-12-18T08:57:30;-5.30;99.90
1686;DHT22;840;47.980;7.830;2022-12-18T08:59:57;-5.30;99.90
1686;DHT22;840;47.980;7.830;2022-12-18T09:02:29;-5.20;99.90
1686;DHT22;840;47.980;7.830;2022-12-18T09:04:56;-5.10;99.90
1686;DHT22;840;47.980;7.830;2022-12-18T09:07:23;-5.10;99.90
1686;DHT22;840;47.980;7.830;2022-12-18T09:09:51;-5.10;99.90
1686;DHT22;840;47.980;7.830;2022-12-18T09:12:18;-5.00;99.90
1686;DHT22;840;47.980;7.830;2022-12-18T09:14:47;-5.00;99.90
1686;DHT22;840;47.980;7.830;2022-12-18T09:17:17;-4.90;99.90
1686;DHT22;840;47.980;7.830;2022-12-18T09:19:45;-4.90;99.90
1686;DHT22;840;47.980;7.830;2022-12-18T09:22:12;-4.80;99.90
1686;DHT22;840;47.980;7.830;2022-12-18T09:24:40;-4.80;99.90
1686;DHT22;840;47.980;7.830;2022-12-18T09:27:08;-4.80;99.90
1686;DHT22;840;47.980;7.830;2022-12-18T09:29:35;-4.70;99.90
1686;DHT22;840;47.980;7.830;2022-12-18T09:32:04;-4.70;99.90
1686;DHT22;840;47.980;7.830;2022-12-18T09:34:32;-4.70;99.90
1686;DHT22;840;47.980;7.830;2022-12-18T09:37:00;-4.80;99.90
1686;DHT22;840;47.980;7.830;2022-12-18T09:39:27;-4.80;99.90
1686;DHT22;840;47.980;7.830;2022-12-18T09:41:57;-4.70;99.90
1686;DHT22;840;47.980;7.830;2022-12-18T09:44:27;-4.60;99.90
1686;DHT22;840;47.980;7.830;2022-12-18T09:47:06;-4.60;99.90
1686;DHT22;840;47.980;7.830;2022-12-18T09:49:38;-4.60;99.90
1686;DHT22;840;47.980;7.830;2022-12-18T09:52:11;-4.60;99.90
1686;DHT22;840;47.980;7.830;2022-12-18T09:54:40;-4.50;99.90
1686;DHT22;840;47.980;7.830;2022-12-18T09:57:12;-4.50;99.90
1686;DHT22;840;47.980;7.830;2022-12-18T09:59:41;-4.40;99.90
1686;DHT22;840;47.980;7.830;2022-12-18T10:02:18;-4.30;99.90
1686;DHT22;840;47.980;7.830;2022-12-18T10:05:03;-4.20;99.90
1686;DHT22;840;47.980;7.830;2022-12-18T10:07:42;-4.20;99.90
1686;DHT22;840;47.980;7.830;2022-12-18T10:10:31;-4.10;99.90
1686;DHT22;840;47.980;7.830;2022-12-18T10:13:05;-4.20;99.90
1686;DHT22;840;47.980;7.830;2022-12-18T10:15:38;-4.30;99.90
1686;DHT22;840;47.980;7.830;2022-12-18T10:18:18;-4.30;99.90
1686;DHT22;840;47.980;7.830;2022-12-18T10:20:50;-4.30;99.90
1686;DHT22;840;47.980;7.830;2022-12-18T10:23:21;-4.20;99.90
1686;DHT22;840;47.980;7.830;2022-12-18T10:26:02;-4.10;99.90
1686;DHT22;840;47.980;7.830;2022-12-18T10:28:30;-4.00;99.90
1686;DHT22;840;47.980;7.830;2022-12-18T10:30:58;-3.80;99.90
1686;DHT22;840;47.980;7.830;2022-12-18T10:33:30;-3.70;99.90
1686;DHT22;840;47.980;7.830;2022-12-18T10:35:57;-3.60;99.90
1686;DHT22;840;47.980;7.830;2022-12-18T10:38:26;-3.50;99.90
1686;DHT22;840;47.980;7.830;2022-12-18T10:40:58;-3.50;99.90
1686;DHT22;840;47.980;7.830;2022-12-18T10:43:28;-3.40;99.90
1686;DHT22;840;47.980;7.830;2022-12-18T10:46:01;-3.30;99.90
1686;DHT22;840;47.980;7.830;2022-12-18T10:48:34;-3.20;99.90
1686;DHT22;840;47.980;7.830;2022-12-18T10:51:08;-3.00;99.90
1686;DHT22;840;47.980;7.830;2022-12-18T10:53:37;-2.90;99.90
1686;DHT22;840;47.980;7.830;2022-12-18T10:56:05;-2.80;99.90
1686;DHT22;840;47.980;7.830;2022-12-18T10:58:36;-2.80;99.90
1686;DHT22;840;47.980;7.830;2022-12-18T11:01:07;-2.70;99.90
1686;DHT22;840;47.980;7.830;2022-12-18T11:03:37;-2.70;99.90
1686;DHT22;840;47.980;7.830;2022-12-18T11:06:08;-2.60;99.90
1686;DHT22;840;47.980;7.830;2022-12-18T11:08:35;-2.60;99.90
1686;DHT22;840;47.980;7.830;2022-12-18T11:11:07;-2.50;99.90
1686;DHT22;840;47.980;7.830;2022-12-18T11:13:41;-2.50;99.90
1686;DHT22;840;47.980;7.830;2022-12-18T11:16:18;-2.40;99.90
1686;DHT22;840;47.980;7.830;2022-12-18T11:18:47;-2.30;99.90
1686;DHT22;840;47.980;7.830;2022-12-18T11:21:14;-2.40;99.90
1686;DHT22;840;47.980;7.830;2022-12-18T11:23:46;-2.40;99.90
1686;DHT22;840;47.980;7.830;2022-12-18T11:26:14;-2.30;99.90
1686;DHT22;840;47.980;7.830;2022-12-18T11:28:46;-2.30;99.90
1686;DHT22;840;47.980;7.830;2022-12-18T11:31:21;-2.30;99.90
1686;DHT22;840;47.980;7.830;2022-12-18T11:34:07;-2.30;99.90
1686;DHT22;840;47.980;7.830;2022-12-18T11:36:40;-2.30;99.90
1686;DHT22;840;47.980;7.830;2022-12-18T11:39:12;-2.30;99.90
1686;DHT22;840;47.980;7.830;2022-12-18T11:41:48;-2.30;99.90
1686;DHT22;840;47.980;7.830;2022-12-18T11:44:41;-2.30;99.90
1686;DHT22;840;47.980;7.830;2022-12-18T11:47:19;-2.30;99.90
1686;DHT22;840;47.980;7.830;2022-12-18T11:49:55;-2.30;99.90
1686;DHT22;840;47.980;7.830;2022-12-18T11:52:26;-2.20;99.90
1686;DHT22;840;47.980;7.830;2022-12-18T11:54:56;-2.20;99.90
1686;DHT22;840;47.980;7.830;2022-12-18T11:57:32;-2.10;99.90
1686;DHT22;840;47.980;7.830;2022-12-18T12:00:07;-2.10;99.90
1686;DHT22;840;47.980;7.830;2022-12-18T12:03:06;-2.10;99.90
1686;DHT22;840;47.980;7.830;2022-12-18T12:05:48;-2.10;99.90
1686;DHT22;840;47.980;7.830;2022-12-18T12:08:22;-2.10;99.90
1686;DHT22;840;47.980;7.830;2022-12-18T12:10:56;-2.00;99.90
1686;DHT22;840;47.980;7.830;2022-12-18T12:13:34;-1.90;99.90
1686;DHT22;840;47.980;7.830;2022-12-18T12:16:12;-1.90;99.90
1686;DHT22;840;47.980;7.830;2022-12-18T12:18:54;-1.70;99.90
1686;DHT22;840;47.980;7.830;2022-12-18T12:21:31;-1.70;99.90
1686;DHT22;840;47.980;7.830;2022-12-18T12:24:09;-1.70;99.90
1686;DHT22;840;47.980;7.830;2022-12-18T12:26:43;-1.70;99.90
1686;DHT22;840;47.980;7.830;2022-12-18T12:29:23;-1.80;99.90
1686;DHT22;840;47.980;7.830;2022-12-18T12:32:07;-1.70;99.90
1686;DHT22;840;47.980;7.830;2022-12-18T12:34:46;-1.60;99.90
1686;DHT22;840;47.980;7.830;2022-12-18T12:37:25;-1.50;99.90
1686;DHT22;840;47.980;7.830;2022-12-18T12:39:58;-1.60;99.90
1686;DHT22;840;47.980;7.830;2022-12-18T12:42:33;-1.50;99.90
1686;DHT22;840;47.980;7.830;2022-12-18T12:45:26;-1.40;99.90
1686;DHT22;840;47.980;7.830;2022-12-18T12:48:01;-1.30;99.90
1686;DHT22;840;47.980;7.830;2022-12-18T12:50:43;-1.30;99.90
1686;DHT22;840;47.980;7.830;2022-12-18T12:53:21;-1.20;99.90
1686;DHT22;840;47.980;7.830;2022-12-18T12:55:50;-1.20;99.90
1686;DHT22;840;47.980;7.830;2022-12-18T12:58:29;-1.10;99.90
1686;DHT22;840;47.980;7.830;2022-12-18T13:01:08;-1.10;99.90
1686;DHT22;840;47.980;7.830;2022-12-18T13:03:46;-1.10;99.90
1686;DHT22;840;47.980;7.830;2022-12-18T13:06:27;-1.20;99.90
1686;DHT22;840;47.980;7.830;2022-12-18T13:09:00;-1.20;99.90
1686;DHT22;840;47.980;7.830;2022-12-18T13:11:34;-1.10;99.90
1686;DHT22;840;47.980;7.830;2022-12-18T13:14:24;-1.10;99.90
1686;DHT22;840;47.980;7.830;2022-12-18T13:17:24;-1.10;99.90
1686;DHT22;840;47.980;7.830;2022-12-18T13:20:05;-1.10;99.90
1686;DHT22;840;47.980;7.830;2022-12-18T13:22:35;-1.00;99.90
1686;DHT22;840;47.980;7.830;2022-12-18T13:25:29;-0.90;99.90
1686;DHT22;840;47.980;7.830;2022-12-18T13:28:09;-0.90;99.90
1686;DHT22;840;47.980;7.830;2022-12-18T13:30:58;-0.80;99.90
1686;DHT22;840;47.980;7.830;2022-12-18T13:33:48;-0.70;99.90
1686;DHT22;840;47.980;7.830;2022-12-18T13:36:29;-0.70;99.90
1686;DHT22;840;47.980;7.830;2022-12-18T13:39:21;-0.60;99.90
1686;DHT22;840;47.980;7.830;2022-12-18T13:41:53;-0.50;99.90
1686;DHT22;840;47.980;7.830;2022-12-18T13:44:35;-0.40;99.90
1686;DHT22;840;47.980;7.830;2022-12-18T13:47:03;-0.40;99.90
1686;DHT22;840;47.980;7.830;2022-12-18T13:49:37;-0.40;99.90
1686;DHT22;840;47.980;7.830;2022-12-18T13:52:17;-0.40;99.90
1686;DHT22;840;47.980;7.830;2022-12-18T13:54:49;-0.30;99.90
1686;DHT22;840;47.980;7.830;2022-12-18T13:57:36;-0.30;99.90
1686;DHT22;840;47.980;7.830;2022-12-18T14:00:24;-0.20;99.90
1686;DHT22;840;47.980;7.830;2022-12-18T14:02:53;-0.10;99.90
1686;DHT22;840;47.980;7.830;2022-12-18T14:05:24;-0.10;99.90
1686;DHT22;840;47.980;7.830;2022-12-18T14:07:52;-0.10;99.90
1686;DHT22;840;47.980;7.830;2022-12-18T14:10:21;-0.10;99.90
1686;DHT22;840;47.980;7.830;2022-12-18T14:13:02;0.00;99.90
1686;DHT22;840;47.980;7.830;2022-12-18T14:15:33;0.00;99.90
1686;DHT22;840;47.980;7.830;2022-12-18T14:18:13;0.00;99.90
1686;DHT22;840;47.980;7.830;2022-12-18T14:20:52;0.00;99.90
1686;DHT22;840;47.980;7.830;2022-12-18T14:23:31;0.00;99.90
1686;DHT22;840;47.980;7.830;2022-12-18T14:26:18;0.00;99.90
1686;DHT22;840;47.980;7.830;2022-12-18T14:28:47;0.00;99.90
1686;DHT22;840;47.980;7.830;2022-12-18T14:31:18;0.00;99.90
1686;DHT22;840;47.980;7.830;2022-12-18T14:33:45;0.00;99.90
1686;DHT22;840;47.980;7.830;2022-12-18T14:36:16;0.00;99.90
1686;DHT22;840;47.980;7.830;2022-12-18T14:38:43;0.10;99.90
1686;DHT22;840;47.980;7.830;2022-12-18T14:41:15;0.10;99.90
1686;DHT22;840;47.980;7.830;2022-12-18T14:43:44;0.10;99.90
1686;DHT22;840;47.980;7.830;2022-12-18T14:46:32;0.00;99.90
1686;DHT22;840;47.980;7.830;2022-12-18T14:49:03;-0.10;99.90
1686;DHT22;840;47.980;7.830;2022-12-18T14:51:33;-0.20;99.90
1686;DHT22;840;47.980;7.830;2022-12-18T14:54:01;-0.30;99.90
1686;DHT22;840;47.980;7.830;2022-12-18T14:56:31;-0.30;99.90
1686;DHT22;840;47.980;7.830;2022-12-18T14:58:59;-0.30;99.90
1686;DHT22;840;47.980;7.830;2022-12-18T15:01:31;-0.30;99.90
1686;DHT22;840;47.980;7.830;2022-12-18T15:04:01;-0.30;99.90
1686;DHT22;840;47.980;7.830;2022-12-18T15:06:31;-0.30;99.90
1686;DHT22;840;47.980;7.830;2022-12-18T15:09:02;-0.30;99.90
1686;DHT22;840;47.980;7.830;2022-12-18T15:17:18;-0.20;99.90
1686;DHT22;840;47.980;7.830;2022-12-18T15:19:49;-0.20;99.90
1686;DHT22;840;47.980;7.830;2022-12-18T15:22:21;-0.20;99.90
1686;DHT22;840;47.980;7.830;2022-12-18T15:24:50;-0.30;99.90
1686;DHT22;840;47.980;7.830;2022-12-18T15:27:26;-0.40;99.90
1686;DHT22;840;47.980;7.830;2022-12-18T15:30:17;-0.40;99.90
1686;DHT22;840;47.980;7.830;2022-12-18T15:32:46;-0.40;99.90
1686;DHT22;840;47.980;7.830;2022-12-18T15:35:18;-0.40;99.90
1686;DHT22;840;47.980;7.830;2022-12-18T15:37:49;-0.40;99.90
1686;DHT22;840;47.980;7.830;2022-12-18T15:40:23;-0.40;99.90
1686;DHT22;840;47.980;7.830;2022-12-18T15:42:54;-0.30;99.90
1686;DHT22;840;47.980;7.830;2022-12-18T15:45:39;-0.30;99.90
1686;DHT22;840;47.980;7.830;2022-12-18T15:48:19;-0.30;99.90
1686;DHT22;840;47.980;7.830;2022-12-18T15:50:50;-0.40;99.90
1686;DHT22;840;47.980;7.830;2022-12-18T15:53:19;-0.30;99.90
1686;DHT22;840;47.980;7.830;2022-12-18T15:55:46;-0.30;99.90
1686;DHT22;840;47.980;7.830;2022-12-18T15:58:31;-0.30;99.90
1686;DHT22;840;47.980;7.830;2022-12-18T16:00:59;-0.40;99.90
1686;DHT22;840;47.980;7.830;2022-12-18T16:03:28;-0.40;99.90
1686;DHT22;840;47.980;7.830;2022-12-18T16:05:55;-0.40;99.90
1686;DHT22;840;47.980;7.830;2022-12-18T16:08:23;-0.40;99.90
1686;DHT22;840;47.980;7.830;2022-12-18T16:10:51;-0.40;99.90
1686;DHT22;840;47.980;7.830;2022-12-18T16:13:19;-0.40;99.90
1686;DHT22;840;47.980;7.830;2022-12-18T16:15:47;-0.40;99.90
1686;DHT22;840;47.980;7.830;2022-12-18T16:18:14;-0.40;99.90
1686;DHT22;840;47.980;7.830;2022-12-18T16:20:45;-0.40;99.90
1686;DHT22;840;47.980;7.830;2022-12-18T16:23:12;-0.40;99.90
1686;DHT22;840;47.980;7.830;2022-12-18T16:25:39;-0.40;99.90
1686;DHT22;840;47.980;7.830;2022-12-18T16:28:06;-0.40;99.90
1686;DHT22;840;47.980;7.830;2022-12-18T16:30:33;-0.50;99.90
1686;DHT22;840;47.980;7.830;2022-12-18T16:33:00;-0.50;99.90
1686;DHT22;840;47.980;7.830;2022-12-18T16:35:27;-0.50;99.90
1686;DHT22;840;47.980;7.830;2022-12-18T16:37:56;-0.50;99.90
1686;DHT22;840;47.980;7.830;2022-12-18T16:40:23;-0.50;99.90
1686;DHT22;840;47.980;7.830;2022-12-18T16:42:50;-0.40;99.90
1686;DHT22;840;47.980;7.830;2022-12-18T16:45:17;-0.40;99.90
1686;DHT22;840;47.980;7.830;2022-12-18T16:47:45;-0.40;99.90
1686;DHT22;840;47.980;7.830;2022-12-18T16:50:12;-0.40;99.90
1686;DHT22;840;47.980;7.830;2022-12-18T16:52:39;-0.40;99.90
1686;DHT22;840;47.980;7.830;2022-12-18T16:55:09;-0.40;99.90
1686;DHT22;840;47.980;7.830;2022-12-18T16:57:36;-0.40;99.90
1686;DHT22;840;47.980;7.830;2022-12-18T17:00:05;-0.40;99.90